SHT15C EGJB-EGLL
Flight info
| Callsign | SHT15C |
|---|---|
| Flight time | 0h 32m |
| Altitude | 19000 |
| Route | ORIST1F ORIST L982 ROXOG ROXOG1H |
| Aircraft | A320/M-SDE3FGIJ1KRWXY/SB1 |
Departure
| Time | 2026-04-30 13:04 |
|---|---|
| Airport | Guernsey Airport (EGJB) |
Arrival
| Time | 2026-04-30 13:36 |
|---|---|
| Airport | London Heathrow Airport (EGLL) |
| Time | Latitude | Longitude | Altitude | Speed | Heading |
|---|---|---|---|---|---|
| 2026-04-30 12:46 | 49.43252 | -2.59621 | 336 ft | 0 kts | 178° |
| 2026-04-30 12:52 | 49.43262 | -2.59622 | 335 ft | 2 kts | 176° |
| 2026-04-30 12:53 | 49.43278 | -2.59623 | 335 ft | 2 kts | 178° |
| 2026-04-30 12:53 | 49.43295 | -2.59623 | 335 ft | 2 kts | 180° |
| 2026-04-30 12:53 | 49.43312 | -2.59623 | 335 ft | 2 kts | 182° |
| 2026-04-30 12:53 | 49.43328 | -2.59622 | 338 ft | 2 kts | 185° |
| 2026-04-30 12:54 | 49.43344 | -2.59619 | 336 ft | 2 kts | 195° |
| 2026-04-30 12:54 | 49.43360 | -2.59609 | 336 ft | 2 kts | 245° |
| 2026-04-30 12:54 | 49.43363 | -2.59594 | 337 ft | 1 kts | 267° |
| 2026-04-30 12:56 | 49.43362 | -2.59617 | 336 ft | 3 kts | 268° |
| 2026-04-30 12:56 | 49.43361 | -2.59676 | 339 ft | 8 kts | 268° |
| 2026-04-30 12:57 | 49.43349 | -2.59783 | 334 ft | 12 kts | 255° |
| 2026-04-30 12:57 | 49.43343 | -2.59915 | 336 ft | 12 kts | 269° |
| 2026-04-30 12:57 | 49.43340 | -2.60070 | 333 ft | 17 kts | 268° |
| 2026-04-30 12:57 | 49.43335 | -2.60230 | 330 ft | 14 kts | 267° |
| 2026-04-30 12:58 | 49.43330 | -2.60372 | 327 ft | 13 kts | 268° |
| 2026-04-30 12:58 | 49.43326 | -2.60530 | 322 ft | 17 kts | 269° |
| 2026-04-30 12:58 | 49.43341 | -2.60723 | 322 ft | 20 kts | 280° |
| 2026-04-30 12:58 | 49.43366 | -2.60945 | 319 ft | 19 kts | 272° |
| 2026-04-30 12:59 | 49.43361 | -2.61101 | 316 ft | 13 kts | 270° |
| 2026-04-30 12:59 | 49.43361 | -2.61230 | 314 ft | 0 kts | 278° |
| 2026-04-30 13:02 | 49.43361 | -2.61231 | 314 ft | 1 kts | 278° |
| 2026-04-30 13:02 | 49.43370 | -2.61267 | 313 ft | 6 kts | 302° |
| 2026-04-30 13:02 | 49.43405 | -2.61333 | 312 ft | 10 kts | 316° |
| 2026-04-30 13:03 | 49.43464 | -2.61326 | 313 ft | 9 kts | 66° |
| 2026-04-30 13:03 | 49.43467 | -2.61289 | 314 ft | 0 kts | 87° |
| 2026-04-30 13:03 | 49.43467 | -2.61288 | 314 ft | 0 kts | 87° |
| 2026-04-30 13:03 | 49.43470 | -2.61166 | 317 ft | 42 kts | 88° |
| 2026-04-30 13:04 | 49.43494 | -2.60309 | 329 ft | 114 kts | 87° |
| 2026-04-30 13:04 | 49.43528 | -2.58932 | 775 ft | 131 kts | 89° |
| 2026-04-30 13:04 | 49.43562 | -2.57538 | 1554 ft | 131 kts | 92° |
| 2026-04-30 13:04 | 49.43600 | -2.56084 | 2063 ft | 146 kts | 92° |
| 2026-04-30 13:05 | 49.43642 | -2.54404 | 2485 ft | 169 kts | 91° |
| 2026-04-30 13:05 | 49.43691 | -2.52480 | 2876 ft | 190 kts | 91° |
| 2026-04-30 13:05 | 49.43851 | -2.50336 | 3244 ft | 216 kts | 71° |
| 2026-04-30 13:06 | 49.46364 | -2.47562 | 3969 ft | 237 kts | 18° |
| 2026-04-30 13:06 | 49.47968 | -2.46974 | 4053 ft | 238 kts | 13° |
| 2026-04-30 13:06 | 49.49669 | -2.46466 | 4365 ft | 262 kts | 13° |
| 2026-04-30 13:06 | 49.51521 | -2.45903 | 4982 ft | 279 kts | 13° |
| 2026-04-30 13:07 | 49.53446 | -2.45278 | 5837 ft | 286 kts | 14° |
| 2026-04-30 13:07 | 49.55405 | -2.44599 | 6709 ft | 291 kts | 15° |
| 2026-04-30 13:07 | 49.57391 | -2.43880 | 7581 ft | 295 kts | 15° |
| 2026-04-30 13:07 | 49.59399 | -2.43133 | 8461 ft | 299 kts | 16° |
| 2026-04-30 13:08 | 49.61428 | -2.42369 | 9332 ft | 302 kts | 16° |
| 2026-04-30 13:08 | 49.63482 | -2.41587 | 10176 ft | 306 kts | 17° |
| 2026-04-30 13:08 | 49.65560 | -2.40790 | 10946 ft | 309 kts | 17° |
| 2026-04-30 13:08 | 49.67660 | -2.39969 | 11719 ft | 313 kts | 19° |
| 2026-04-30 13:09 | 49.69661 | -2.38688 | 12473 ft | 312 kts | 34° |
| 2026-04-30 13:09 | 49.71454 | -2.36685 | 12954 ft | 322 kts | 47° |
| 2026-04-30 13:09 | 49.72977 | -2.34074 | 13129 ft | 342 kts | 54° |
| 2026-04-30 13:09 | 49.74556 | -2.31164 | 13568 ft | 354 kts | 54° |
| 2026-04-30 13:10 | 49.76153 | -2.28231 | 14195 ft | 359 kts | 54° |
| 2026-04-30 13:10 | 49.77775 | -2.25264 | 14818 ft | 363 kts | 54° |
| 2026-04-30 13:10 | 49.79414 | -2.22276 | 15445 ft | 366 kts | 54° |
| 2026-04-30 13:10 | 49.81217 | -2.19444 | 16051 ft | 373 kts | 46° |
| 2026-04-30 13:11 | 49.83162 | -2.16748 | 16650 ft | 377 kts | 46° |
| 2026-04-30 13:11 | 49.85134 | -2.14037 | 17255 ft | 381 kts | 46° |
| 2026-04-30 13:11 | 49.87130 | -2.11313 | 17868 ft | 385 kts | 46° |
| 2026-04-30 13:11 | 49.89154 | -2.08557 | 18468 ft | 388 kts | 47° |
| 2026-04-30 13:12 | 49.91194 | -2.05777 | 18920 ft | 392 kts | 46° |
| 2026-04-30 13:12 | 49.93237 | -2.02988 | 19069 ft | 392 kts | 47° |
| 2026-04-30 13:12 | 49.95314 | -2.00139 | 19111 ft | 403 kts | 47° |
| 2026-04-30 13:13 | 49.99540 | -1.94315 | 19119 ft | 407 kts | 47° |
| 2026-04-30 13:13 | 50.01658 | -1.91395 | 19126 ft | 408 kts | 47° |
| 2026-04-30 13:13 | 50.05898 | -1.85533 | 19128 ft | 407 kts | 47° |
| 2026-04-30 13:14 | 50.08007 | -1.82590 | 19131 ft | 407 kts | 47° |
| 2026-04-30 13:14 | 50.10112 | -1.79640 | 19127 ft | 407 kts | 47° |
| 2026-04-30 13:14 | 50.14320 | -1.73723 | 19131 ft | 407 kts | 47° |
| 2026-04-30 13:15 | 50.16421 | -1.70748 | 19133 ft | 407 kts | 47° |
| 2026-04-30 13:15 | 50.20609 | -1.64796 | 19139 ft | 407 kts | 47° |
| 2026-04-30 13:15 | 50.22729 | -1.61771 | 19139 ft | 407 kts | 47° |
| 2026-04-30 13:16 | 50.24849 | -1.58829 | 19141 ft | 410 kts | 43° |
| 2026-04-30 13:16 | 50.27244 | -1.56363 | 19141 ft | 416 kts | 32° |
| 2026-04-30 13:16 | 50.29933 | -1.54599 | 19142 ft | 422 kts | 22° |
| 2026-04-30 13:17 | 50.35554 | -1.51897 | 19142 ft | 423 kts | 21° |
| 2026-04-30 13:17 | 50.38362 | -1.50525 | 19146 ft | 423 kts | 21° |
| 2026-04-30 13:17 | 50.43021 | -1.48219 | 19150 ft | 423 kts | 22° |
| 2026-04-30 13:18 | 50.46776 | -1.46353 | 19156 ft | 423 kts | 21° |
| 2026-04-30 13:18 | 50.52385 | -1.43575 | 19162 ft | 423 kts | 22° |
| 2026-04-30 13:18 | 50.55079 | -1.41799 | 19160 ft | 417 kts | 32° |
| 2026-04-30 13:19 | 50.57624 | -1.39630 | 19165 ft | 416 kts | 33° |
| 2026-04-30 13:19 | 50.60172 | -1.37442 | 19166 ft | 416 kts | 33° |
| 2026-04-30 13:19 | 50.62710 | -1.35255 | 19167 ft | 416 kts | 33° |
| 2026-04-30 13:19 | 50.65254 | -1.33063 | 19170 ft | 416 kts | 33° |
| 2026-04-30 13:20 | 50.67791 | -1.30878 | 19170 ft | 416 kts | 33° |
| 2026-04-30 13:20 | 50.70330 | -1.28687 | 19167 ft | 416 kts | 33° |
| 2026-04-30 13:20 | 50.72869 | -1.26487 | 19171 ft | 416 kts | 33° |
| 2026-04-30 13:20 | 50.75400 | -1.24298 | 19082 ft | 412 kts | 33° |
| 2026-04-30 13:21 | 50.77868 | -1.22084 | 18542 ft | 407 kts | 35° |
| 2026-04-30 13:21 | 50.80259 | -1.19727 | 17992 ft | 402 kts | 37° |
| 2026-04-30 13:21 | 50.82578 | -1.17301 | 17438 ft | 397 kts | 38° |
| 2026-04-30 13:22 | 50.87112 | -1.12441 | 16344 ft | 390 kts | 38° |
| 2026-04-30 13:22 | 50.89354 | -1.10060 | 15819 ft | 386 kts | 38° |
| 2026-04-30 13:22 | 50.93792 | -1.05419 | 14789 ft | 379 kts | 37° |
| 2026-04-30 13:23 | 50.95982 | -1.03149 | 14277 ft | 375 kts | 37° |
| 2026-04-30 13:23 | 50.99598 | -0.99397 | 13697 ft | 360 kts | 39° |
| 2026-04-30 13:24 | 51.03011 | -0.94066 | 13084 ft | 338 kts | 52° |
| 2026-04-30 13:24 | 51.06079 | -0.88598 | 12646 ft | 321 kts | 52° |
| 2026-04-30 13:25 | 51.08969 | -0.83460 | 12361 ft | 303 kts | 53° |
| 2026-04-30 13:25 | 51.11746 | -0.78502 | 11760 ft | 298 kts | 53° |
| 2026-04-30 13:26 | 51.15849 | -0.71135 | 10828 ft | 294 kts | 53° |
| 2026-04-30 13:26 | 51.18562 | -0.66274 | 10230 ft | 292 kts | 52° |
| 2026-04-30 13:27 | 51.22133 | -0.63328 | 9617 ft | 305 kts | 5° |
| 2026-04-30 13:28 | 51.28008 | -0.67096 | 8633 ft | 307 kts | 331° |
| 2026-04-30 13:28 | 51.31727 | -0.70410 | 8029 ft | 305 kts | 331° |
| 2026-04-30 13:28 | 51.33572 | -0.72060 | 7753 ft | 303 kts | 331° |
| 2026-04-30 13:29 | 51.37221 | -0.75312 | 7131 ft | 299 kts | 331° |
| 2026-04-30 13:29 | 51.40831 | -0.78546 | 6095 ft | 296 kts | 331° |
| 2026-04-30 13:30 | 51.45988 | -0.82954 | 5354 ft | 255 kts | 350° |
| 2026-04-30 13:31 | 51.48809 | -0.81504 | 5105 ft | 193 kts | 70° |
| 2026-04-30 13:31 | 51.47898 | -0.76350 | 3970 ft | 169 kts | 106° |
| 2026-04-30 13:32 | 51.47663 | -0.72552 | 3137 ft | 172 kts | 95° |
| 2026-04-30 13:32 | 51.47653 | -0.68813 | 2605 ft | 161 kts | 92° |
| 2026-04-30 13:33 | 51.47668 | -0.65415 | 2211 ft | 146 kts | 92° |
| 2026-04-30 13:33 | 51.47685 | -0.62154 | 1809 ft | 147 kts | 92° |
| 2026-04-30 13:34 | 51.47693 | -0.60514 | 1609 ft | 146 kts | 91° |
| 2026-04-30 13:34 | 51.47717 | -0.55707 | 1025 ft | 136 kts | 91° |
| 2026-04-30 13:35 | 51.47724 | -0.54173 | 832 ft | 137 kts | 90° |
| 2026-04-30 13:35 | 51.47745 | -0.51160 | 464 ft | 138 kts | 93° |
| 2026-04-30 13:36 | 51.47748 | -0.48158 | 120 ft | 133 kts | 90° |
| 2026-04-30 13:36 | 51.47754 | -0.46770 | 89 ft | 106 kts | 89° |
| 2026-04-30 13:36 | 51.47755 | -0.45542 | 87 ft | 17 kts | 106° |
| 2026-04-30 13:37 | 51.47656 | -0.45470 | 86 ft | 18 kts | 181° |
| 2026-04-30 13:37 | 51.47594 | -0.45769 | 87 ft | 12 kts | 271° |
| 2026-04-30 13:38 | 51.47594 | -0.46105 | 89 ft | 17 kts | 269° |
| 2026-04-30 13:38 | 51.47592 | -0.46312 | 87 ft | 20 kts | 269° |
| 2026-04-30 13:38 | 51.47591 | -0.46770 | 87 ft | 19 kts | 270° |
| 2026-04-30 13:39 | 51.47581 | -0.47228 | 87 ft | 23 kts | 270° |
| 2026-04-30 13:39 | 51.47580 | -0.47751 | 90 ft | 20 kts | 269° |
| 2026-04-30 13:40 | 51.47579 | -0.47966 | 89 ft | 15 kts | 269° |
| 2026-04-30 13:40 | 51.47579 | -0.48136 | 88 ft | 15 kts | 270° |
| 2026-04-30 13:40 | 51.47578 | -0.48310 | 90 ft | 16 kts | 269° |
| 2026-04-30 13:40 | 51.47575 | -0.48447 | 87 ft | 10 kts | 256° |
| 2026-04-30 13:41 | 51.47514 | -0.48478 | 87 ft | 10 kts | 179° |
| 2026-04-30 13:41 | 51.47441 | -0.48477 | 87 ft | 10 kts | 180° |
| 2026-04-30 13:41 | 51.47401 | -0.48492 | 87 ft | 4 kts | 232° |
| 2026-04-30 13:41 | 51.47399 | -0.48528 | 88 ft | 1 kts | 269° |
| 2026-04-30 13:42 | 51.47399 | -0.48548 | 87 ft | 3 kts | 269° |
| 2026-04-30 13:42 | 51.47399 | -0.48584 | 88 ft | 4 kts | 269° |
| 2026-04-30 13:42 | 51.47399 | -0.48596 | 87 ft | 0 kts | 269° |